Time;durP1;ratioP1;P1;durP2;ratioP2;P2;SDS_P1;SDS_P2;PMS_P1;PMS_P2;Temp;Humidity;BMP_temperature;BMP_pressure;BME280_temperature;BME280_humidity;BME280_pressure;Samples;Min_cycle;Max_cycle;Signal;HPM_P1;HPM_P2
2023/10/12 00:00:33;;;;;;;6.07;1.40;;;14.10;99.90;;;;;;5121590;28;20042;-63
2023/10/12 00:02:59;;;;;;;5.47;1.30;;;14.10;99.90;;;;;;5107804;28;20043;-61
2023/10/12 00:05:27;;;;;;;7.10;1.65;;;14.10;99.90;;;;;;5113989;28;20482;-63
2023/10/12 00:07:55;;;;;;;5.47;2.13;;;14.10;99.90;;;;;;5117890;28;20063;-62
2023/10/12 00:10:21;;;;;;;9.98;3.33;;;14.10;99.90;;;;;;5096629;28;20128;-61
2023/10/12 00:12:50;;;;;;;9.65;2.55;;;14.00;99.90;;;;;;5110993;28;20546;-63
2023/10/12 00:17:47;;;;;;;6.93;2.85;;;14.00;99.90;;;;;;5107822;28;20047;-63
2023/10/12 00:23:12;;;;;;;4.30;1.20;;;13.90;99.90;;;;;;5066872;28;20484;-61
2023/10/12 00:25:46;;;;;;;4.70;1.55;;;13.90;99.90;;;;;;5050768;28;20170;-61
2023/10/12 00:28:23;;;;;;;4.78;1.30;;;13.90;99.90;;;;;;5044910;28;20088;-62
2023/10/12 00:30:54;;;;;;;5.30;1.17;;;13.90;99.90;;;;;;5050146;28;20109;-62
2023/10/12 00:33:21;;;;;;;3.67;1.23;;;13.90;99.90;;;;;;5048301;28;20080;-63
2023/10/12 00:35:52;;;;;;;4.72;1.33;;;13.90;99.90;;;;;;5060649;28;20291;-62
2023/10/12 00:38:18;;;;;;;4.90;1.60;;;13.90;99.90;;;;;;5042791;28;20061;-61
2023/10/12 00:40:58;;;;;;;5.55;1.73;;;13.90;99.90;;;;;;5058527;28;20578;-62
2023/10/12 00:46:39;;;;;;;6.28;1.83;;;13.90;99.90;;;;;;5028608;28;20044;-62
2023/10/12 00:51:51;;;;;;;4.78;1.20;;;13.80;99.90;;;;;;5056050;28;20071;-61
2023/10/12 00:54:40;;;;;;;5.13;1.30;;;13.80;99.90;;;;;;5039899;28;20471;-63
2023/10/12 00:57:08;;;;;;;4.57;1.20;;;13.80;99.90;;;;;;5059943;28;20044;-62
2023/10/12 00:59:34;;;;;;;3.65;1.42;;;13.80;99.90;;;;;;5080546;28;20075;-62
2023/10/12 01:02:12;;;;;;;6.15;1.23;;;13.80;99.90;;;;;;5110463;28;20035;-62
2023/10/12 01:04:41;;;;;;;4.10;1.23;;;13.80;99.90;;;;;;5110420;28;20051;-62
2023/10/12 01:07:10;;;;;;;4.70;1.35;;;13.80;99.90;;;;;;5110209;28;20050;-62
2023/10/12 01:09:43;;;;;;;5.00;1.17;;;13.80;99.90;;;;;;5098376;27;20075;-61
2023/10/12 01:12:17;;;;;;;4.38;1.15;;;13.80;99.90;;;;;;5094975;27;20044;-62
2023/10/12 01:14:47;;;;;;;7.30;1.30;;;13.80;99.90;;;;;;5099309;27;20101;-61
2023/10/12 01:17:17;;;;;;;4.70;1.40;;;13.80;99.90;;;;;;5100455;27;20027;-63
2023/10/12 01:19:46;;;;;;;6.20;1.33;;;13.80;99.90;;;;;;5103533;27;20048;-61
2023/10/12 01:22:13;;;;;;;3.20;1.58;;;13.80;99.90;;;;;;5104975;27;20039;-61
2023/10/12 01:24:57;;;;;;;5.10;1.48;;;13.80;99.90;;;;;;5100693;27;20043;-63
2023/10/12 01:27:25;;;;;;;5.20;1.48;;;13.80;99.90;;;;;;5109261;27;20036;-63
2023/10/12 01:29:52;;;;;;;7.28;2.42;;;13.80;99.90;;;;;;5100394;28;20040;-61
2023/10/12 01:34:51;;;;;;;7.45;2.00;;;13.80;99.90;;;;;;5099406;27;20101;-62
2023/10/12 01:40:07;;;;;;;6.27;1.50;;;13.80;99.90;;;;;;5102744;28;20108;-63
2023/10/12 01:48:16;;;;;;;3.33;1.10;;;13.60;99.90;;;;;;5063344;28;20058;-63
2023/10/12 01:50:42;;;;;;;6.47;1.80;;;13.60;99.90;;;;;;5044946;28;20124;-61
2023/10/12 01:53:23;;;;;;;7.20;1.70;;;13.60;99.90;;;;;;5042551;28;20048;-63
2023/10/12 01:55:52;;;;;;;4.95;1.40;;;13.60;99.90;;;;;;5038205;28;20087;-63
2023/10/12 01:58:27;;;;;;;6.50;1.55;;;13.60;99.90;;;;;;5038777;28;20475;-64
2023/10/12 02:00:53;;;;;;;5.38;1.25;;;13.50;99.90;;;;;;5051205;28;20471;-61
2023/10/12 02:03:26;;;;;;;6.35;1.42;;;13.60;99.90;;;;;;5066159;28;20125;-62
2023/10/12 02:06:00;;;;;;;4.80;1.15;;;13.60;99.90;;;;;;5023199;28;20139;-64
2023/10/12 02:08:33;;;;;;;5.00;1.05;;;13.60;99.90;;;;;;5052584;28;20598;-62
2023/10/12 02:11:26;;;;;;;5.43;1.20;;;13.60;99.90;;;;;;5044773;28;20041;-61
2023/10/12 02:13:50;;;;;;;5.60;1.17;;;13.50;99.90;;;;;;5034957;28;20079;-62
2023/10/12 02:16:24;;;;;;;6.18;1.50;;;13.50;99.90;;;;;;5053734;28;20064;-63
2023/10/12 02:18:50;;;;;;;5.70;1.85;;;13.50;99.90;;;;;;5060855;28;20068;-63
2023/10/12 02:21:21;;;;;;;6.60;1.30;;;13.50;99.90;;;;;;5058854;28;20056;-62
2023/10/12 02:31:30;;;;;;;5.78;1.40;;;13.50;99.90;;;;;;5082433;28;20052;-61
2023/10/12 02:33:56;;;;;;;3.97;1.23;;;13.50;99.90;;;;;;5076223;28;20105;-63
2023/10/12 02:36:26;;;;;;;5.90;1.70;;;13.50;99.90;;;;;;5080645;28;20409;-62
2023/10/12 02:39:00;;;;;;;4.03;1.20;;;13.50;99.90;;;;;;5078914;28;20044;-63
2023/10/12 02:41:26;;;;;;;4.93;1.55;;;13.50;99.90;;;;;;5079974;28;20036;-61
2023/10/12 02:44:10;;;;;;;4.65;1.40;;;13.40;99.90;;;;;;5081334;28;20048;-62
2023/10/12 02:46:43;;;;;;;7.03;1.40;;;13.40;99.90;;;;;;5075948;28;20506;-63
2023/10/12 02:49:09;;;;;;;;;;;13.40;99.90;;;;;;5082421;28;20115;-62
2023/10/12 02:51:39;;;;;;;5.35;1.25;;;13.40;99.90;;;;;;5089714;28;20002;-60
2023/10/12 02:54:05;;;;;;;5.18;1.13;;;13.40;99.90;;;;;;5085497;28;20118;-64
2023/10/12 02:56:31;;;;;;;3.90;1.73;;;13.40;99.90;;;;;;5088519;28;20115;-61
2023/10/12 02:59:08;;;;;;;5.55;1.27;;;13.40;99.90;;;;;;5069525;28;20036;-62
2023/10/12 03:01:38;;;;;;;3.83;1.20;;;13.40;99.90;;;;;;5088140;28;20562;-62
2023/10/12 03:04:10;;;;;;;5.85;1.15;;;13.40;99.90;;;;;;5085528;28;20075;-63
2023/10/12 03:06:52;;;;;;;4.30;1.33;;;13.40;99.90;;;;;;5068130;28;20048;-61
2023/10/12 03:09:18;;;;;;;4.55;1.20;;;13.40;99.90;;;;;;5078466;28;20036;-62
2023/10/12 03:11:43;;;;;;;6.05;1.67;;;13.40;99.90;;;;;;5086291;28;20043;-62
2023/10/12 03:14:16;;;;;;;4.28;1.50;;;13.30;99.90;;;;;;5087703;28;20040;-62
2023/10/12 03:16:42;;;;;;;;;;;13.30;99.90;;;;;;5089267;28;20052;-63
2023/10/12 03:19:25;;;;;;;4.72;1.30;;;13.30;99.90;;;;;;5098561;28;19923;-60
2023/10/12 03:21:52;;;;;;;5.88;1.50;;;13.30;99.90;;;;;;5127193;28;20051;-61
2023/10/12 03:24:44;;;;;;;5.38;1.38;;;13.30;99.90;;;;;;5110419;28;20067;-63
2023/10/12 03:27:11;;;;;;;6.05;1.40;;;13.30;99.90;;;;;;5112361;28;20070;-61
2023/10/12 03:29:43;;;;;;;7.50;1.80;;;13.40;99.90;;;;;;5108874;28;20045;-62
2023/10/12 03:32:11;;;;;;;6.82;1.90;;;13.30;99.90;;;;;;5129120;28;20481;-62
2023/10/12 03:37:14;;;;;;;9.15;1.55;;;13.30;99.90;;;;;;5129308;28;20046;-61
2023/10/12 03:39:58;;;;;;;7.63;1.60;;;13.30;99.90;;;;;;5110091;28;20043;-63
2023/10/12 03:45:08;;;;;;;6.80;1.65;;;13.30;99.90;;;;;;5111131;28;20099;-62
2023/10/12 03:48:03;;;;;;;8.38;1.85;;;13.30;99.90;;;;;;5126162;28;20048;-62
2023/10/12 03:50:31;;;;;;;5.43;1.92;;;13.30;99.90;;;;;;5108685;28;20051;-62
2023/10/12 03:52:59;;;;;;;8.43;1.60;;;13.30;99.90;;;;;;5106415;28;20039;-62
2023/10/12 03:55:27;;;;;;;3.75;1.55;;;13.30;99.90;;;;;;5109810;28;20039;-62
2023/10/12 03:58:08;;;;;;;4.90;1.60;;;13.30;99.90;;;;;;5109657;28;20485;-62
2023/10/12 04:01:05;;;;;;;4.85;1.77;;;13.30;99.90;;;;;;5114538;27;20071;-63
2023/10/12 04:03:42;;;;;;;4.55;1.67;;;13.30;99.90;;;;;;5112468;27;20788;-62
2023/10/12 04:06:15;;;;;;;6.53;1.75;;;13.30;99.90;;;;;;5129903;27;20050;-63
2023/10/12 04:08:49;;;;;;;;;;;13.30;99.90;;;;;;5134922;27;20045;-61
2023/10/12 04:11:47;;;;;;;5.15;1.58;;;13.30;99.90;;;;;;5096309;27;20053;-62
2023/10/12 04:14:20;;;;;;;6.35;2.08;;;13.30;99.90;;;;;;5105304;27;20083;-63
2023/10/12 04:16:56;;;;;;;5.55;2.08;;;13.30;99.90;;;;;;5123912;27;20028;-62
2023/10/12 04:19:32;;;;;;;6.30;1.85;;;13.30;99.90;;;;;;5112893;27;20085;-61
2023/10/12 04:22:15;;;;;;;6.68;1.67;;;13.30;99.90;;;;;;5133335;27;20035;-62
2023/10/12 04:24:45;;;;;;;;;;;13.30;99.90;;;;;;5113742;27;20051;-62
2023/10/12 04:27:37;;;;;;;3.88;1.75;;;13.30;99.90;;;;;;5114968;27;19923;-62
2023/10/12 04:30:18;;;;;;;3.83;1.70;;;13.30;99.90;;;;;;5130127;27;20051;-61
2023/10/12 04:36:01;;;;;;;7.57;1.95;;;13.30;99.90;;;;;;5126659;27;20062;-62
2023/10/12 04:43:38;;;;;;;4.70;1.90;;;13.30;99.90;;;;;;5132813;27;20085;-62
2023/10/12 04:48:41;;;;;;;5.47;1.88;;;13.30;99.90;;;;;;5115272;27;20047;-62
2023/10/12 04:51:07;;;;;;;8.25;2.40;;;13.30;99.90;;;;;;5123055;27;20085;-61
2023/10/12 04:56:19;;;;;;;10.77;2.30;;;13.30;99.90;;;;;;5098865;27;20051;-63
2023/10/12 04:58:57;;;;;;;6.13;2.10;;;13.30;99.90;;;;;;5115312;27;20049;-61
2023/10/12 05:04:26;;;;;;;5.90;1.77;;;13.30;99.90;;;;;;5131945;27;20131;-61
2023/10/12 05:09:37;;;;;;;4.85;2.25;;;13.30;99.90;;;;;;5112862;27;20043;-63
2023/10/12 05:12:03;;;;;;;5.05;2.10;;;13.30;99.90;;;;;;5113929;27;20039;-62
2023/10/12 05:14:33;;;;;;;6.97;1.75;;;13.30;99.90;;;;;;5114718;27;20047;-62
2023/10/12 05:16:58;;;;;;;4.57;1.40;;;13.30;99.90;;;;;;5112345;27;20039;-62
2023/10/12 05:19:24;;;;;;;8.00;1.90;;;13.30;99.90;;;;;;5097620;27;20047;-62
2023/10/12 05:21:50;;;;;;;6.35;1.77;;;13.30;99.90;;;;;;5127194;27;20512;-63
2023/10/12 05:24:15;;;;;;;4.78;1.52;;;13.30;99.90;;;;;;5111632;27;20122;-60
2023/10/12 05:26:41;;;;;;;5.38;1.50;;;13.30;99.90;;;;;;5128477;27;20116;-60
2023/10/12 05:34:46;;;;;;;6.35;1.50;;;13.30;99.90;;;;;;5045833;28;20081;-60
2023/10/12 05:39:56;;;;;;;4.30;1.45;;;13.20;99.90;;;;;;5021962;28;20042;-62
2023/10/12 05:42:22;;;;;;;5.80;1.63;;;13.20;99.90;;;;;;5020589;28;20146;-61
2023/10/12 05:44:53;;;;;;;9.80;1.98;;;13.20;99.90;;;;;;5028847;28;20041;-62
2023/10/12 05:47:31;;;;;;;6.35;1.70;;;13.20;99.90;;;;;;5007301;28;20543;-61
2023/10/12 05:49:57;;;;;;;6.32;1.45;;;13.20;99.90;;;;;;4998991;28;20048;-61
2023/10/12 05:52:26;;;;;;;5.00;1.98;;;13.20;99.90;;;;;;4989994;28;20087;-61
2023/10/12 05:54:58;;;;;;;5.07;2.00;;;13.10;99.90;;;;;;5012357;28;20050;-62
2023/10/12 05:57:25;;;;;;;6.70;1.60;;;13.10;99.90;;;;;;5027509;28;20038;-61
2023/10/12 05:59:51;;;;;;;6.35;2.00;;;13.10;99.90;;;;;;5010589;28;20045;-61
2023/10/12 06:02:17;;;;;;;5.30;1.80;;;13.00;99.90;;;;;;5026973;28;20048;-61
2023/10/12 06:04:43;;;;;;;7.35;1.80;;;13.00;99.90;;;;;;5010617;28;20045;-61
2023/10/12 06:07:10;;;;;;;5.80;1.77;;;13.00;99.90;;;;;;5011402;28;20057;-62
2023/10/12 06:09:37;;;;;;;6.78;1.98;;;13.00;99.90;;;;;;5028314;28;20041;-61
2023/10/12 06:12:06;;;;;;;6.82;2.03;;;13.00;99.90;;;;;;5099203;27;20159;-59
2023/10/12 06:14:38;;;;;;;5.30;1.88;;;13.00;99.90;;;;;;5112524;27;20053;-59
2023/10/12 06:17:07;;;;;;;3.50;1.70;;;13.00;99.90;;;;;;5112861;27;20027;-64
2023/10/12 06:19:36;;;;;;;6.43;2.03;;;13.00;99.90;;;;;;5111995;27;20043;-60
2023/10/12 06:22:24;;;;;;;8.15;2.50;;;13.00;99.90;;;;;;5130188;27;20043;-61
2023/10/12 06:24:52;;;;;;;7.00;2.35;;;13.00;99.90;;;;;;5112606;27;20452;-62
2023/10/12 06:29:54;;;;;;;8.95;2.50;;;13.10;99.90;;;;;;5121519;27;20035;-62
2023/10/12 06:32:27;;;;;;;6.68;2.05;;;13.00;99.90;;;;;;5092440;27;20031;-60
2023/10/12 06:37:49;;;;;;;8.55;2.20;;;13.10;99.90;;;;;;5091858;27;20043;-62
2023/10/12 06:51:02;;;;;;;8.60;2.58;;;13.20;99.90;;;;;;5093574;27;20501;-61
2023/10/12 06:53:35;;;;;;;10.20;2.58;;;13.20;99.90;;;;;;5095932;27;20047;-61
2023/10/12 07:01:51;;;;;;;8.38;2.30;;;13.20;99.90;;;;;;5128143;27;20039;-60
2023/10/12 07:04:38;;;;;;;9.80;2.72;;;13.30;99.90;;;;;;5130961;27;20035;-62
2023/10/12 07:07:07;;;;;;;8.52;2.33;;;13.30;99.90;;;;;;5107898;28;20055;-62
2023/10/12 07:09:39;;;;;;;10.75;2.47;;;13.30;99.90;;;;;;5105241;28;20043;-62
2023/10/12 07:12:18;;;;;;;7.38;2.28;;;13.40;99.90;;;;;;5112739;27;20070;-60
2023/10/12 07:14:47;;;;;;;7.88;2.38;;;13.30;99.90;;;;;;5112489;27;20146;-62
2023/10/12 07:17:14;;;;;;;5.43;1.73;;;13.30;99.90;;;;;;5113166;28;20494;-60
2023/10/12 07:19:50;;;;;;;9.52;2.42;;;13.40;99.90;;;;;;5112691;28;20043;-60
2023/10/12 07:22:15;;;;;;;9.30;2.20;;;13.50;99.90;;;;;;5112901;28;20047;-62
2023/10/12 07:24:45;;;;;;;10.02;2.45;;;13.50;99.90;;;;;;5131232;28;20035;-63
2023/10/12 07:27:21;;;;;;;7.93;2.17;;;13.60;99.90;;;;;;5113137;28;20080;-61
2023/10/12 07:30:00;;;;;;;7.13;2.30;;;13.70;99.90;;;;;;5112680;28;20423;-61
2023/10/12 07:32:54;;;;;;;8.27;2.20;;;13.70;99.90;;;;;;5131362;28;20557;-60
2023/10/12 07:35:31;;;;;;;8.80;2.10;;;13.90;99.90;;;;;;5116979;27;20119;-61
2023/10/12 07:38:15;;;;;;;6.60;1.90;;;13.90;99.90;;;;;;5116937;27;20034;-63
2023/10/12 07:43:38;;;;;;;9.35;2.05;;;14.20;99.90;;;;;;5031640;28;20042;-61
2023/10/12 07:46:12;;;;;;;5.57;1.70;;;14.40;99.90;;;;;;5032831;28;20128;-61
2023/10/12 07:48:45;;;;;;;8.95;1.73;;;14.60;99.90;;;;;;5034768;28;20049;-62
2023/10/12 07:51:30;;;;;;;6.88;1.90;;;14.70;99.90;;;;;;5035358;28;20126;-62
2023/10/12 07:54:00;;;;;;;12.18;1.80;;;14.90;99.90;;;;;;5031541;28;20049;-60
2023/10/12 07:56:32;;;;;;;7.18;2.13;;;14.90;99.90;;;;;;5015461;28;20045;-61
2023/10/12 07:58:58;;;;;;;5.72;1.45;;;15.00;99.90;;;;;;5031553;28;20072;-60
2023/10/12 08:03:59;;;;;;;6.05;1.52;;;14.90;99.90;;;;;;5031434;28;20120;-62
2023/10/12 08:09:05;;;;;;;9.30;1.70;;;14.90;99.90;;;;;;5031382;28;20041;-63
2023/10/12 08:11:34;;;;;;;5.78;1.67;;;14.90;99.90;;;;;;5015128;28;20044;-62
2023/10/12 08:19:56;;;;;;;6.13;1.27;;;14.80;99.90;;;;;;5017211;28;20545;-61
2023/10/12 08:22:31;;;;;;;8.13;1.48;;;14.70;99.90;;;;;;5074796;28;20399;-62
2023/10/12 08:24:59;;;;;;;8.68;2.47;;;14.70;99.90;;;;;;5073985;28;20179;-61
2023/10/12 08:27:36;;;;;;;5.28;1.25;;;14.60;99.90;;;;;;5074414;28;20056;-61
2023/10/12 08:30:13;;;;;;;5.88;1.13;;;14.60;99.90;;;;;;5073917;28;20047;-62
2023/10/12 08:32:55;;;;;;;6.45;1.17;;;14.60;99.90;;;;;;5091228;28;20085;-63
2023/10/12 08:36:10;;;;;;;6.50;1.17;;;14.50;99.90;;;;;;5074212;28;20048;-61
2023/10/12 08:38:33;;;;;;;6.63;1.80;;;14.50;99.90;;;;;;5073700;28;20056;-60
2023/10/12 08:43:52;;;;;;;9.60;1.40;;;14.50;99.90;;;;;;5074238;28;20559;-61
2023/10/12 08:52:06;;;;;;;6.72;0.98;;;14.40;99.90;;;;;;5118668;27;20135;-60
2023/10/12 08:54:38;;;;;;;6.65;1.20;;;14.30;99.90;;;;;;5134032;27;20043;-62
2023/10/12 08:57:09;;;;;;;6.60;1.20;;;14.30;99.90;;;;;;5115392;27;20060;-61
2023/10/12 08:59:38;;;;;;;6.20;1.10;;;14.30;99.90;;;;;;5115442;27;20168;-62
2023/10/12 09:02:18;;;;;;;4.03;0.98;;;14.20;99.90;;;;;;5115313;27;20435;-62
2023/10/12 09:04:48;;;;;;;5.32;1.10;;;14.20;99.90;;;;;;5115036;27;20051;-62
2023/10/12 09:07:19;;;;;;;5.68;1.10;;;14.20;99.90;;;;;;5115176;27;20039;-60
2023/10/12 09:09:49;;;;;;;5.75;0.90;;;14.20;99.90;;;;;;5115075;27;20058;-61
2023/10/12 09:12:19;;;;;;;5.57;1.10;;;14.20;99.90;;;;;;5133579;27;20435;-61
2023/10/12 09:14:45;;;;;;;6.90;1.60;;;14.20;99.90;;;;;;5133686;27;20043;-61
2023/10/12 09:17:27;;;;;;;7.88;1.20;;;14.30;99.90;;;;;;5133502;27;20436;-61
2023/10/12 09:20:10;;;;;;;5.93;1.48;;;14.30;99.90;;;;;;5108984;28;20079;-61
2023/10/12 09:22:38;;;;;;;5.72;1.10;;;14.30;99.90;;;;;;5111652;28;20040;-62
2023/10/12 09:25:05;;;;;;;6.97;1.52;;;14.30;99.90;;;;;;5111626;28;20043;-63
2023/10/12 09:27:48;;;;;;;10.13;1.65;;;14.30;99.90;;;;;;5111302;28;20042;-63
2023/10/12 09:30:16;;;;;;;6.60;2.17;;;14.40;99.90;;;;;;5111675;28;20048;-61
2023/10/12 09:32:57;;;;;;;7.90;1.20;;;14.40;99.90;;;;;;5111643;28;20123;-61
2023/10/12 09:35:33;;;;;;;7.18;1.40;;;14.60;99.90;;;;;;5112792;28;20134;-62
2023/10/12 09:38:01;;;;;;;7.45;1.23;;;14.80;99.90;;;;;;5111338;28;20039;-60
2023/10/12 09:40:39;;;;;;;6.18;1.10;;;14.90;99.90;;;;;;5111397;28;20126;-62
2023/10/12 09:43:12;;;;;;;4.88;0.90;;;15.00;99.90;;;;;;5112357;28;20043;-63
2023/10/12 09:45:44;;;;;;;;;;;15.20;99.90;;;;;;5111574;28;20054;-66
2023/10/12 09:48:19;;;;;;;10.07;1.25;;;15.20;99.90;;;;;;5111344;28;20366;-60
2023/10/12 09:50:47;;;;;;;12.30;1.52;;;15.30;99.90;;;;;;5112372;28;20088;-61
2023/10/12 09:53:26;;;;;;;7.07;1.50;;;15.50;99.90;;;;;;5111123;28;20460;-61
2023/10/12 09:56:34;;;;;;;6.03;1.50;;;15.60;99.90;;;;;;5112522;28;20038;-63
2023/10/12 09:58:52;;;;;;;7.65;1.50;;;15.60;99.90;;;;;;5106774;28;20083;-62
2023/10/12 10:07:14;;;;;;;7.10;1.23;;;15.50;99.90;;;;;;5112062;28;20066;-63
2023/10/12 10:09:49;;;;;;;3.23;1.07;;;15.40;99.90;;;;;;5111882;28;20043;-61
2023/10/12 10:12:20;;;;;;;6.60;1.30;;;15.30;99.90;;;;;;5111579;28;20281;-62
2023/10/12 10:14:57;;;;;;;5.68;1.83;;;15.30;99.90;;;;;;5110662;28;20035;-61
2023/10/12 10:17:24;;;;;;;7.57;1.20;;;15.20;99.90;;;;;;5110453;28;20039;-62
2023/10/12 10:23:03;;;;;;;7.05;1.27;;;15.20;99.90;;;;;;5085804;28;20418;-63
2023/10/12 10:25:42;;;;;;;9.20;1.52;;;15.10;99.90;;;;;;5110328;28;20126;-61
2023/10/12 10:28:13;;;;;;;7.05;1.33;;;15.20;99.90;;;;;;5110398;28;20035;-62
2023/10/12 10:30:49;;;;;;;7.80;1.33;;;15.20;99.90;;;;;;5110191;28;20078;-61
2023/10/12 10:33:22;;;;;;;5.90;1.10;;;15.30;99.90;;;;;;5111399;28;20122;-62
2023/10/12 10:36:00;;;;;;;6.82;1.27;;;15.30;99.90;;;;;;5111519;28;20027;-63
2023/10/12 10:38:34;;;;;;;5.20;1.25;;;15.30;99.90;;;;;;5110059;28;20071;-61
2023/10/12 10:41:18;;;;;;;6.63;1.35;;;15.40;99.90;;;;;;5111460;28;20475;-61
2023/10/12 10:43:45;;;;;;;8.73;1.60;;;15.30;99.90;;;;;;5111267;28;20051;-63
2023/10/12 10:46:13;;;;;;;6.63;1.40;;;15.30;99.90;;;;;;5111309;28;20503;-62
2023/10/12 10:48:49;;;;;;;7.00;1.10;;;15.30;99.90;;;;;;5110140;28;20035;-61
2023/10/12 10:51:19;;;;;;;8.10;1.02;;;15.20;99.90;;;;;;5109960;28;20046;-62
2023/10/12 10:53:54;;;;;;;4.28;1.23;;;15.20;99.90;;;;;;5109867;28;20459;-62
2023/10/12 10:56:41;;;;;;;4.43;1.10;;;15.10;99.90;;;;;;5110208;28;20417;-61
2023/10/12 10:59:12;;;;;;;7.40;1.98;;;15.10;99.90;;;;;;5110145;28;20114;-62
2023/10/12 11:01:46;;;;;;;7.88;1.33;;;15.20;99.90;;;;;;5109807;28;20463;-62
2023/10/12 11:04:26;;;;;;;6.03;1.20;;;15.10;99.90;;;;;;5109540;28;20122;-61
2023/10/12 11:06:53;;;;;;;7.72;1.90;;;15.20;99.90;;;;;;5109852;28;20896;-61
2023/10/12 11:09:31;;;;;;;6.18;1.40;;;15.20;99.90;;;;;;5110391;28;20036;-61
2023/10/12 11:12:00;;;;;;;9.70;1.90;;;15.30;99.90;;;;;;5110039;28;20505;-62
2023/10/12 11:14:31;;;;;;;8.43;1.73;;;15.20;99.90;;;;;;5109627;28;20047;-60
2023/10/12 11:17:00;;;;;;;9.20;2.00;;;15.30;99.90;;;;;;5109705;28;20401;-60
2023/10/12 11:19:27;;;;;;;7.30;1.83;;;15.30;99.90;;;;;;5109679;28;20395;-62
2023/10/12 11:21:53;;;;;;;8.10;1.60;;;15.30;99.90;;;;;;5110774;28;20444;-61
2023/10/12 11:24:20;;;;;;;5.28;1.48;;;15.20;99.90;;;;;;5109418;28;20043;-61
2023/10/12 11:26:51;;;;;;;8.68;1.58;;;15.10;99.90;;;;;;5109680;28;20817;-62
2023/10/12 11:29:16;;;;;;;7.63;1.70;;;15.10;99.90;;;;;;5109646;28;20043;-62
2023/10/12 11:31:46;;;;;;;9.00;1.77;;;15.10;99.90;;;;;;5109067;28;20417;-62
2023/10/12 11:34:23;;;;;;;7.47;1.80;;;15.10;99.90;;;;;;5109675;28;20478;-63
2023/10/12 11:36:57;;;;;;;8.02;1.63;;;15.10;99.90;;;;;;5109511;28;20560;-63
2023/10/12 11:39:28;;;;;;;8.20;1.50;;;15.00;99.90;;;;;;5110715;28;20039;-61
2023/10/12 11:42:07;;;;;;;7.07;1.80;;;15.00;99.90;;;;;;5110451;28;20031;-61
2023/10/12 11:44:37;;;;;;;8.32;1.90;;;14.90;99.90;;;;;;5109590;28;20444;-62
2023/10/12 11:47:10;;;;;;;11.73;1.75;;;14.90;99.90;;;;;;5109097;28;20036;-60
2023/10/12 11:49:55;;;;;;;10.88;2.20;;;14.90;99.90;;;;;;5110559;28;20367;-62
2023/10/12 11:52:34;;;;;;;6.38;1.35;;;14.80;99.90;;;;;;5109389;28;20506;-62
2023/10/12 11:55:07;;;;;;;8.07;1.70;;;14.80;99.90;;;;;;5109176;28;20095;-62
2023/10/12 11:57:37;;;;;;;10.75;1.63;;;14.80;99.90;;;;;;5109049;28;20089;-61
2023/10/12 12:00:20;;;;;;;9.80;1.63;;;14.80;99.90;;;;;;5109328;28;20039;-62
2023/10/12 12:02:48;;;;;;;7.28;1.40;;;14.80;99.90;;;;;;5108893;28;20473;-61
2023/10/12 12:05:16;;;;;;;8.30;1.35;;;14.70;99.90;;;;;;5107068;28;20046;-62
2023/10/12 12:07:42;;;;;;;10.05;1.85;;;14.70;99.90;;;;;;5110523;28;20116;-63
2023/10/12 12:10:08;;;;;;;6.88;1.35;;;14.60;99.90;;;;;;5110172;28;20490;-61
2023/10/12 12:12:38;;;;;;;9.45;2.03;;;14.50;99.90;;;;;;5091994;28;20509;-63
2023/10/12 12:15:05;;;;;;;7.65;1.60;;;14.50;99.90;;;;;;5110135;28;20115;-61
2023/10/12 12:17:31;;;;;;;7.50;1.63;;;14.50;99.90;;;;;;5109068;28;20104;-63
2023/10/12 12:19:56;;;;;;;5.95;1.50;;;14.50;99.90;;;;;;5110379;28;20047;-62
2023/10/12 12:22:23;;;;;;;7.65;1.73;;;14.50;99.90;;;;;;5113063;28;20055;-62
2023/10/12 12:24:49;;;;;;;10.63;1.92;;;14.40;99.90;;;;;;5114550;28;20083;-60
2023/10/12 12:30:00;;;;;;;9.93;1.77;;;14.30;99.90;;;;;;5113900;28;20088;-61
2023/10/12 12:32:26;;;;;;;10.18;1.73;;;14.20;99.90;;;;;;5095234;28;20056;-62
2023/10/12 12:34:54;;;;;;;9.60;1.98;;;14.10;99.90;;;;;;5112341;28;20040;-63
2023/10/12 12:37:20;;;;;;;8.32;1.92;;;14.00;99.90;;;;;;5113690;28;20027;-61
2023/10/12 12:40:13;;;;;;;10.35;2.13;;;13.90;99.90;;;;;;5112511;28;20046;-62
2023/10/12 12:42:36;;;;;;;5.80;1.48;;;13.90;99.90;;;;;;5112161;28;20043;-61
2023/10/12 12:45:03;;;;;;;9.27;2.28;;;13.80;99.90;;;;;;5112180;28;20478;-62
2023/10/12 12:47:32;;;;;;;8.98;1.98;;;13.80;99.90;;;;;;5112651;28;20397;-60
2023/10/12 12:50:01;;;;;;;8.85;2.22;;;13.70;99.90;;;;;;5112234;28;20079;-61
2023/10/12 12:52:27;;;;;;;11.20;2.38;;;13.60;99.90;;;;;;5095325;28;20092;-61
2023/10/12 12:54:53;;;;;;;12.60;3.08;;;13.50;99.90;;;;;;5113319;28;20031;-61
2023/10/12 12:57:18;;;;;;;7.13;2.15;;;13.50;99.90;;;;;;5094899;28;20043;-62
2023/10/12 12:59:44;;;;;;;12.27;2.40;;;13.40;99.90;;;;;;5112101;28;20063;-61
2023/10/12 13:02:10;;;;;;;8.93;2.33;;;13.40;99.90;;;;;;5112256;28;20051;-61
2023/10/12 13:04:36;;;;;;;8.95;2.40;;;13.40;99.90;;;;;;5112326;28;20172;-60
2023/10/12 13:07:08;;;;;;;8.70;2.08;;;13.30;99.90;;;;;;5111853;28;20040;-62
2023/10/12 13:09:36;;;;;;;9.13;2.60;;;13.30;99.90;;;;;;5111862;28;20082;-62
2023/10/12 13:12:05;;;;;;;6.78;1.73;;;13.30;99.90;;;;;;5113599;28;20627;-61
2023/10/12 13:14:31;;;;;;;7.22;2.10;;;13.30;99.90;;;;;;5113123;28;20036;-61
2023/10/12 13:16:58;;;;;;;13.82;2.60;;;13.30;99.90;;;;;;5111911;28;20040;-62
2023/10/12 13:19:24;;;;;;;8.90;2.22;;;13.30;99.90;;;;;;5121178;27;20061;-61
2023/10/12 13:21:50;;;;;;;7.95;1.63;;;13.30;99.90;;;;;;5097803;27;20049;-61
2023/10/12 13:24:15;;;;;;;8.98;2.25;;;13.20;99.90;;;;;;5114942;27;20043;-62
2023/10/12 13:26:44;;;;;;;10.25;1.80;;;13.20;99.90;;;;;;5115037;27;20039;-63
2023/10/12 13:29:12;;;;;;;7.10;1.70;;;13.20;99.90;;;;;;5114627;27;20070;-62
2023/10/12 13:31:37;;;;;;;8.23;2.03;;;13.10;99.90;;;;;;5114589;27;20081;-63
2023/10/12 13:34:05;;;;;;;7.40;2.03;;;13.20;99.90;;;;;;5114806;27;20067;-60
2023/10/12 13:36:32;;;;;;;7.10;1.75;;;13.10;99.90;;;;;;5133111;27;20035;-62
2023/10/12 13:38:59;;;;;;;6.50;1.42;;;13.10;99.90;;;;;;5115151;27;20050;-62
2023/10/12 13:41:25;;;;;;;8.32;1.70;;;13.20;99.90;;;;;;5132852;27;20047;-60
2023/10/12 13:43:51;;;;;;;10.75;1.92;;;13.20;99.90;;;;;;5114290;27;20035;-61
2023/10/12 13:46:17;;;;;;;8.73;1.85;;;13.10;99.90;;;;;;5114782;27;20042;-61
2023/10/12 13:48:42;;;;;;;8.13;2.13;;;13.10;99.90;;;;;;5132174;27;20505;-61
2023/10/12 13:51:10;;;;;;;8.63;1.80;;;13.10;99.90;;;;;;5114139;27;20039;-61
2023/10/12 13:53:36;;;;;;;7.20;1.85;;;13.10;99.90;;;;;;5113354;27;20054;-61
2023/10/12 13:56:09;;;;;;;6.25;1.95;;;13.10;99.90;;;;;;5114560;27;20031;-62
2023/10/12 13:58:36;;;;;;;9.93;1.95;;;13.10;99.90;;;;;;5113678;27;20039;-61
2023/10/12 14:01:03;;;;;;;5.55;1.63;;;13.10;99.90;;;;;;5114223;27;20490;-62
2023/10/12 14:03:34;;;;;;;7.60;1.92;;;13.10;99.90;;;;;;5113725;27;20051;-60
2023/10/12 14:06:06;;;;;;;5.82;1.70;;;13.20;99.90;;;;;;5132617;27;20046;-61
2023/10/12 14:08:33;;;;;;;7.28;2.30;;;13.10;99.90;;;;;;5114122;27;20118;-61
2023/10/12 14:11:04;;;;;;;7.82;2.13;;;13.10;99.90;;;;;;5114055;27;20386;-61
2023/10/12 14:13:31;;;;;;;7.28;2.25;;;13.10;99.90;;;;;;5113999;27;20051;-61
2023/10/12 14:15:57;;;;;;;5.95;1.95;;;13.20;99.90;;;;;;5114042;27;20506;-62
2023/10/12 14:18:23;;;;;;;9.00;2.35;;;13.10;99.90;;;;;;5114270;27;20038;-62
2023/10/12 14:20:51;;;;;;;7.57;2.17;;;13.10;99.90;;;;;;5131936;27;20051;-61
2023/10/12 14:23:17;;;;;;;6.45;2.05;;;13.10;99.90;;;;;;5113813;27;20049;-61
2023/10/12 14:25:47;;;;;;;6.80;2.20;;;13.10;99.90;;;;;;5132214;27;20122;-62
2023/10/12 14:28:19;;;;;;;7.10;2.75;;;13.20;99.90;;;;;;5113842;27;20042;-61
2023/10/12 14:30:52;;;;;;;9.13;3.38;;;13.10;99.90;;;;;;5113657;27;20039;-60
2023/10/12 14:33:19;;;;;;;7.28;2.97;;;13.20;99.90;;;;;;5113890;27;20485;-61
2023/10/12 14:35:46;;;;;;;7.93;3.03;;;13.20;99.90;;;;;;5113883;27;20449;-61
2023/10/12 14:38:16;;;;;;;9.15;3.05;;;13.20;99.90;;;;;;5114080;27;20039;-61
2023/10/12 14:40:43;;;;;;;7.57;3.05;;;13.20;99.90;;;;;;5132031;27;20042;-61
2023/10/12 14:43:11;;;;;;;7.85;3.10;;;13.20;99.90;;;;;;5112600;27;20096;-61
2023/10/12 14:45:48;;;;;;;7.00;3.00;;;13.20;99.90;;;;;;5113636;27;20038;-61
2023/10/12 14:48:16;;;;;;;7.47;2.78;;;13.20;99.90;;;;;;5113220;27;20055;-62
2023/10/12 14:50:48;;;;;;;6.78;2.92;;;13.10;99.90;;;;;;5132014;27;20047;-61
2023/10/12 14:53:16;;;;;;;7.93;2.80;;;13.10;99.90;;;;;;5113369;27;20039;-61
2023/10/12 14:55:48;;;;;;;8.85;3.08;;;13.00;99.90;;;;;;5113293;27;20453;-59
2023/10/12 14:58:16;;;;;;;7.55;3.50;;;13.00;99.90;;;;;;5113665;27;20485;-61
2023/10/12 15:00:45;;;;;;;8.68;3.50;;;13.10;99.90;;;;;;5113391;27;20043;-61
2023/10/12 15:03:11;;;;;;;7.55;2.90;;;13.00;99.90;;;;;;5113256;27;20427;-61
2023/10/12 15:05:37;;;;;;;6.40;2.35;;;13.00;99.90;;;;;;5113300;27;20142;-60
2023/10/12 15:08:07;;;;;;;5.38;2.55;;;13.00;99.90;;;;;;5113338;28;20447;-62